Time;durP1;ratioP1;P1;durP2;ratioP2;P2;SDS_P1;SDS_P2;PMS_P1;PMS_P2;Temp;Humidity;BMP_temperature;BMP_pressure;BME280_temperature;BME280_humidity;BME280_pressure;Samples;Min_cycle;Max_cycle;Signal;HPM_P1;HPM_P2
2021/05/15 00:01:03;;;;;;;2.90;2.60;;;11.40;99.90;;;;;;5107690;28;20472;-77
2021/05/15 00:03:29;;;;;;;2.50;2.13;;;11.40;99.90;;;;;;5107733;28;20981;-78
2021/05/15 00:05:54;;;;;;;3.93;2.60;;;11.40;99.90;;;;;;5107828;28;20430;-76
2021/05/15 00:08:20;;;;;;;2.60;2.37;;;11.40;99.90;;;;;;5107331;28;20209;-76
2021/05/15 00:10:48;;;;;;;2.70;2.50;;;11.40;99.90;;;;;;5107183;28;20207;-77
2021/05/15 00:13:14;;;;;;;3.00;2.33;;;11.40;99.90;;;;;;5102833;28;20200;-78
2021/05/15 00:15:40;;;;;;;2.30;2.10;;;11.30;99.90;;;;;;5107666;28;21270;-77
2021/05/15 00:18:05;;;;;;;2.57;2.13;;;11.20;99.90;;;;;;5106774;28;20421;-77
2021/05/15 00:20:31;;;;;;;2.20;2.10;;;11.20;99.90;;;;;;5107076;28;20606;-78
2021/05/15 00:22:56;;;;;;;2.03;1.93;;;11.10;99.90;;;;;;5106724;28;20717;-77
2021/05/15 00:25:22;;;;;;;2.10;1.90;;;11.10;99.90;;;;;;5101311;28;20219;-77
2021/05/15 00:27:48;;;;;;;2.00;1.90;;;11.00;99.90;;;;;;5102219;28;20212;-77
2021/05/15 00:30:15;;;;;;;2.70;1.97;;;10.90;99.90;;;;;;5102389;28;20238;-78
2021/05/15 00:32:42;;;;;;;2.37;2.13;;;10.90;99.90;;;;;;5107279;28;20227;-77
2021/05/15 00:35:08;;;;;;;1.50;1.40;;;10.80;99.90;;;;;;5107128;28;20495;-77
2021/05/15 00:37:34;;;;;;;1.30;1.20;;;10.70;99.90;;;;;;5107570;28;20413;-76
2021/05/15 00:40:00;;;;;;;1.97;1.87;;;10.80;99.90;;;;;;5106393;28;20979;-76
2021/05/15 00:42:26;;;;;;;2.40;2.03;;;10.70;99.90;;;;;;5107255;28;20410;-78
2021/05/15 00:44:52;;;;;;;2.17;1.93;;;10.60;99.90;;;;;;5107101;28;20194;-78
2021/05/15 00:47:19;;;;;;;4.23;2.00;;;10.60;99.90;;;;;;5107302;28;20656;-77
2021/05/15 00:49:46;;;;;;;1.90;1.80;;;10.60;99.90;;;;;;5106785;28;20195;-75
2021/05/15 00:52:12;;;;;;;1.73;1.63;;;10.60;99.90;;;;;;5096904;28;20818;-78
2021/05/15 00:54:40;;;;;;;1.70;1.53;;;10.50;99.90;;;;;;5106927;28;20418;-79
2021/05/15 00:57:08;;;;;;;1.70;1.60;;;10.50;99.90;;;;;;5097551;28;20407;-78
2021/05/15 00:59:34;;;;;;;2.00;1.90;;;10.50;99.90;;;;;;5106976;28;20422;-78
2021/05/15 01:02:01;;;;;;;2.00;1.80;;;10.40;99.90;;;;;;5107579;28;20473;-77
2021/05/15 01:04:27;;;;;;;3.30;1.93;;;10.40;99.90;;;;;;5107029;28;20414;-76
2021/05/15 01:06:52;;;;;;;2.00;1.83;;;10.40;99.90;;;;;;5107208;28;20525;-77
2021/05/15 01:09:18;;;;;;;3.70;2.30;;;10.40;99.90;;;;;;5096768;28;20720;-77
2021/05/15 01:11:44;;;;;;;2.07;1.87;;;10.30;99.90;;;;;;5106788;28;20200;-77
2021/05/15 01:14:10;;;;;;;1.67;1.57;;;10.30;99.90;;;;;;5096956;28;20438;-77
2021/05/15 01:16:36;;;;;;;2.53;1.40;;;10.40;99.90;;;;;;5097252;28;20223;-77
2021/05/15 01:19:03;;;;;;;1.93;1.73;;;10.30;99.90;;;;;;5106581;28;20407;-78
2021/05/15 01:21:29;;;;;;;1.73;1.37;;;10.40;99.90;;;;;;5096826;28;20212;-77
2021/05/15 01:23:54;;;;;;;1.57;1.47;;;10.40;99.90;;;;;;5093180;28;20466;-78
2021/05/15 01:26:25;;;;;;;1.83;1.40;;;10.40;99.90;;;;;;5096769;28;20271;-78
2021/05/15 01:28:55;;;;;;;1.93;1.80;;;10.40;99.90;;;;;;5107608;28;20202;-78
2021/05/15 01:31:22;;;;;;;1.37;1.27;;;10.40;99.90;;;;;;5100250;28;20532;-78
2021/05/15 01:33:48;;;;;;;1.70;1.60;;;10.40;99.90;;;;;;5110597;28;20521;-78
2021/05/15 01:36:14;;;;;;;2.00;1.80;;;10.40;99.90;;;;;;5110325;28;20607;-77
2021/05/15 01:38:40;;;;;;;1.90;1.80;;;10.40;99.90;;;;;;5101163;28;20202;-77
2021/05/15 01:41:08;;;;;;;2.57;1.70;;;10.40;99.90;;;;;;5100061;28;20306;-75
2021/05/15 01:43:34;;;;;;;3.13;1.83;;;10.40;99.90;;;;;;5110129;28;20468;-77
2021/05/15 01:46:01;;;;;;;2.40;1.63;;;10.40;99.90;;;;;;5110323;28;20504;-76
2021/05/15 01:48:27;;;;;;;2.60;2.40;;;10.40;99.90;;;;;;5110511;28;20504;-77
2021/05/15 01:51:11;;;;;;;2.70;2.00;;;10.30;99.90;;;;;;5109906;28;20464;-77
2021/05/15 01:53:41;;;;;;;2.40;1.90;;;10.30;99.90;;;;;;5108637;28;20184;-76
2021/05/15 01:56:09;;;;;;;1.93;1.83;;;10.30;99.90;;;;;;5110192;28;20877;-76
2021/05/15 01:58:36;;;;;;;2.07;1.93;;;10.20;99.90;;;;;;5109972;28;20410;-76
2021/05/15 02:01:02;;;;;;;1.93;1.70;;;10.20;99.90;;;;;;5104476;28;20454;-75
2021/05/15 02:03:28;;;;;;;3.07;2.50;;;10.20;99.90;;;;;;5110350;28;20460;-77
2021/05/15 02:05:54;;;;;;;3.20;1.80;;;10.20;99.90;;;;;;5110159;28;20418;-79
2021/05/15 02:08:22;;;;;;;3.10;2.37;;;10.20;99.90;;;;;;5110024;28;20181;-78
2021/05/15 02:10:49;;;;;;;2.13;2.00;;;10.20;99.90;;;;;;5104239;28;20430;-79
2021/05/15 02:13:15;;;;;;;3.30;2.20;;;10.20;99.90;;;;;;5109356;28;20442;-78
2021/05/15 02:15:40;;;;;;;2.20;2.03;;;10.20;99.90;;;;;;5109689;28;20473;-78
2021/05/15 02:18:07;;;;;;;1.83;1.73;;;10.20;99.90;;;;;;5109725;28;20419;-78
2021/05/15 02:20:33;;;;;;;2.20;2.03;;;10.20;99.90;;;;;;5109030;28;20192;-77
2021/05/15 02:22:59;;;;;;;2.00;1.80;;;10.20;99.90;;;;;;5102014;28;20526;-78
2021/05/15 02:25:26;;;;;;;5.80;2.60;;;10.20;99.90;;;;;;5109411;28;20513;-78
2021/05/15 02:27:52;;;;;;;2.37;2.17;;;10.20;99.90;;;;;;5109481;28;20691;-78
2021/05/15 02:30:20;;;;;;;4.10;2.63;;;10.20;99.90;;;;;;5105361;28;20426;-78
2021/05/15 02:32:45;;;;;;;3.90;2.50;;;10.20;99.90;;;;;;5108999;28;20950;-77
2021/05/15 02:35:11;;;;;;;3.60;3.30;;;10.20;99.90;;;;;;5109417;28;20458;-78
2021/05/15 02:37:37;;;;;;;2.47;2.27;;;10.20;99.90;;;;;;5109378;28;20679;-77
2021/05/15 02:40:04;;;;;;;2.87;2.37;;;10.20;99.90;;;;;;5108080;28;20225;-78
2021/05/15 02:42:30;;;;;;;3.10;2.50;;;10.20;99.90;;;;;;5109023;28;20402;-77
2021/05/15 02:44:55;;;;;;;2.30;2.10;;;10.20;99.90;;;;;;5109187;28;20812;-77
2021/05/15 02:47:22;;;;;;;2.60;2.17;;;10.20;99.90;;;;;;5099076;28;20197;-77
2021/05/15 02:49:48;;;;;;;3.50;3.20;;;10.20;99.90;;;;;;5108453;28;20275;-77
2021/05/15 02:52:14;;;;;;;4.13;2.73;;;10.20;99.90;;;;;;5109104;28;20450;-77
2021/05/15 02:54:40;;;;;;;5.60;2.80;;;10.20;99.90;;;;;;5109009;28;21007;-77
2021/05/15 02:57:07;;;;;;;4.97;2.87;;;10.20;99.90;;;;;;5099771;28;20196;-78
2021/05/15 02:59:32;;;;;;;4.67;3.70;;;10.20;99.90;;;;;;5108749;28;20180;-77
2021/05/15 03:01:58;;;;;;;3.50;3.23;;;10.30;99.90;;;;;;5101570;28;20434;-77
2021/05/15 03:04:24;;;;;;;3.67;3.37;;;10.30;99.90;;;;;;5085056;28;20555;-77
2021/05/15 03:06:49;;;;;;;3.30;3.00;;;10.30;99.90;;;;;;5108982;28;20185;-78
2021/05/15 03:09:15;;;;;;;4.57;4.17;;;10.20;99.90;;;;;;5109065;28;20181;-77
2021/05/15 03:11:40;;;;;;;4.17;3.30;;;10.20;99.90;;;;;;5108734;28;20201;-76
2021/05/15 03:14:06;;;;;;;5.33;3.60;;;10.30;99.90;;;;;;5108678;28;20565;-77
2021/05/15 03:16:32;;;;;;;3.70;3.40;;;10.30;99.90;;;;;;5108930;28;20632;-76
2021/05/15 03:18:58;;;;;;;3.97;3.57;;;10.20;99.90;;;;;;5108897;28;20423;-77
2021/05/15 03:21:24;;;;;;;3.63;3.00;;;10.30;99.90;;;;;;5100049;28;20311;-76
2021/05/15 03:23:49;;;;;;;4.23;3.83;;;10.20;99.90;;;;;;5108465;28;20214;-76
2021/05/15 03:26:15;;;;;;;5.43;3.57;;;10.20;99.90;;;;;;5108980;28;20475;-78
2021/05/15 03:28:40;;;;;;;4.07;3.60;;;10.30;99.90;;;;;;5108616;28;20660;-77
2021/05/15 03:31:06;;;;;;;3.93;3.20;;;10.20;99.90;;;;;;5108060;28;20210;-77
2021/05/15 03:33:32;;;;;;;5.10;3.60;;;10.20;99.90;;;;;;5108447;28;20188;-76
2021/05/15 03:35:57;;;;;;;3.70;3.40;;;10.20;99.90;;;;;;5101290;28;20204;-77
2021/05/15 03:38:23;;;;;;;4.47;3.60;;;10.20;99.90;;;;;;5108242;28;20693;-78
2021/05/15 03:40:48;;;;;;;5.40;3.90;;;10.10;99.90;;;;;;5107592;28;20571;-78
2021/05/15 03:43:14;;;;;;;4.10;3.60;;;10.10;99.90;;;;;;5108096;28;20185;-77
2021/05/15 03:45:39;;;;;;;3.60;3.30;;;10.10;99.90;;;;;;5098344;28;20180;-77
2021/05/15 03:48:05;;;;;;;4.10;3.80;;;10.10;99.90;;;;;;5108076;28;20200;-77
2021/05/15 03:50:31;;;;;;;3.50;3.20;;;10.10;99.90;;;;;;5097862;28;20208;-77
2021/05/15 03:52:57;;;;;;;3.90;3.50;;;10.00;99.90;;;;;;5097332;28;20436;-78
2021/05/15 03:55:22;;;;;;;4.30;3.90;;;10.00;99.90;;;;;;5107872;28;20235;-78
2021/05/15 03:57:48;;;;;;;3.83;3.50;;;10.10;99.90;;;;;;5108269;28;20530;-79
2021/05/15 04:00:14;;;;;;;3.90;3.40;;;10.10;99.90;;;;;;5097605;28;20176;-77
2021/05/15 04:02:39;;;;;;;4.00;3.60;;;10.10;99.90;;;;;;5108079;28;20636;-78
2021/05/15 04:05:07;;;;;;;4.53;3.50;;;10.10;99.90;;;;;;5107717;28;20430;-79
2021/05/15 04:07:32;;;;;;;3.30;3.00;;;10.10;99.90;;;;;;5107975;28;20200;-78
2021/05/15 04:09:58;;;;;;;3.33;3.03;;;10.10;99.90;;;;;;5097730;28;20426;-78
2021/05/15 04:12:25;;;;;;;3.13;2.83;;;10.10;99.90;;;;;;5106787;28;20266;-78
2021/05/15 04:15:03;;;;;;;3.60;3.30;;;10.20;99.90;;;;;;5107504;28;20196;-78
2021/05/15 04:17:29;;;;;;;3.03;2.83;;;10.10;99.90;;;;;;5106752;28;20446;-78
2021/05/15 04:19:57;;;;;;;4.67;3.20;;;10.20;99.90;;;;;;5107321;28;20450;-78
2021/05/15 04:22:23;;;;;;;3.83;3.53;;;10.10;99.90;;;;;;5107412;28;20470;-78
2021/05/15 04:24:48;;;;;;;3.60;3.30;;;10.20;99.90;;;;;;5107742;28;20494;-77
2021/05/15 04:27:14;;;;;;;3.47;2.70;;;10.10;99.90;;;;;;5107594;28;20525;-78
2021/05/15 04:29:40;;;;;;;3.90;3.60;;;10.10;99.90;;;;;;5099732;28;20265;-78
2021/05/15 04:32:06;;;;;;;3.47;3.17;;;10.10;99.90;;;;;;5107148;28;20614;-77
2021/05/15 04:34:31;;;;;;;4.23;3.40;;;10.10;99.90;;;;;;5107449;28;20690;-77
2021/05/15 04:36:58;;;;;;;3.80;3.53;;;10.10;99.90;;;;;;5093522;28;20484;-77
2021/05/15 04:39:25;;;;;;;3.67;3.37;;;10.10;99.90;;;;;;5100238;28;20251;-76
2021/05/15 04:41:51;;;;;;;3.90;3.53;;;10.10;99.90;;;;;;5097426;28;20434;-78
2021/05/15 04:44:17;;;;;;;3.63;2.90;;;10.10;99.90;;;;;;5107223;28;20422;-78
2021/05/15 04:46:43;;;;;;;3.33;3.03;;;10.10;99.90;;;;;;5107052;28;20471;-77
2021/05/15 04:49:08;;;;;;;4.07;3.00;;;10.20;99.90;;;;;;5107238;28;21081;-78
2021/05/15 04:51:34;;;;;;;3.73;3.47;;;10.20;99.90;;;;;;5106876;28;20257;-78
2021/05/15 04:54:01;;;;;;;3.53;3.33;;;10.20;99.90;;;;;;5107795;28;20191;-77
2021/05/15 04:56:28;;;;;;;3.80;3.50;;;10.30;99.90;;;;;;5107093;28;20250;-78
2021/05/15 04:58:54;;;;;;;4.73;3.07;;;10.40;99.90;;;;;;5093340;28;20426;-79
2021/05/15 05:01:19;;;;;;;3.00;2.80;;;10.50;99.90;;;;;;5107236;28;20442;-78
2021/05/15 05:03:45;;;;;;;3.37;3.07;;;10.50;99.90;;;;;;5107837;28;20180;-76
2021/05/15 05:06:10;;;;;;;4.00;3.60;;;10.50;99.90;;;;;;5111082;28;20185;-77
2021/05/15 05:08:36;;;;;;;3.23;2.97;;;10.60;99.90;;;;;;5110783;28;20192;-76
2021/05/15 05:11:01;;;;;;;4.10;3.23;;;10.60;99.90;;;;;;5110627;28;20252;-77
2021/05/15 05:13:27;;;;;;;3.53;3.23;;;10.70;99.90;;;;;;5110711;28;20248;-76
2021/05/15 05:15:53;;;;;;;4.83;3.73;;;10.60;99.90;;;;;;5100931;28;20611;-77
2021/05/15 05:18:18;;;;;;;3.03;2.67;;;10.70;99.90;;;;;;5110758;28;20306;-78
2021/05/15 05:20:44;;;;;;;3.17;2.97;;;10.70;99.90;;;;;;5110263;28;20696;-78
2021/05/15 05:23:09;;;;;;;3.77;3.33;;;10.80;99.90;;;;;;5110599;28;20665;-78
2021/05/15 05:25:35;;;;;;;3.80;3.10;;;10.80;99.90;;;;;;5110869;28;20192;-77
2021/05/15 05:28:01;;;;;;;3.63;3.33;;;10.90;99.90;;;;;;5110947;28;20188;-77
2021/05/15 05:30:27;;;;;;;4.10;3.70;;;10.90;99.90;;;;;;5110636;28;20304;-77
2021/05/15 05:32:53;;;;;;;4.03;3.63;;;10.90;99.90;;;;;;5110757;28;20199;-77
2021/05/15 05:35:19;;;;;;;3.93;3.30;;;10.90;99.90;;;;;;5110411;28;20479;-76
2021/05/15 05:37:46;;;;;;;4.63;3.50;;;10.90;99.90;;;;;;5110480;28;20426;-77
2021/05/15 05:40:12;;;;;;;3.30;3.00;;;10.90;99.90;;;;;;5109757;28;20945;-78
2021/05/15 05:42:39;;;;;;;3.67;3.43;;;10.90;99.90;;;;;;5110524;28;20406;-77
2021/05/15 05:45:10;;;;;;;3.23;2.97;;;11.00;99.90;;;;;;5110443;28;20426;-77
2021/05/15 05:47:36;;;;;;;2.93;2.73;;;11.10;99.90;;;;;;5110587;28;20731;-77
2021/05/15 05:50:02;;;;;;;3.63;3.33;;;11.20;99.90;;;;;;5103275;28;20445;-75
2021/05/15 05:52:27;;;;;;;3.80;3.50;;;11.30;99.90;;;;;;5110224;28;20181;-76
2021/05/15 05:54:53;;;;;;;3.63;3.43;;;11.20;99.90;;;;;;5110290;28;20468;-76
2021/05/15 05:57:19;;;;;;;4.20;3.57;;;11.20;99.90;;;;;;5110103;28;20663;-76
2021/05/15 05:59:44;;;;;;;4.07;3.67;;;11.30;99.90;;;;;;5110263;28;20180;-76
2021/05/15 06:02:11;;;;;;;3.20;2.90;;;11.30;99.90;;;;;;5110114;28;20284;-78
2021/05/15 06:04:37;;;;;;;3.17;2.90;;;11.40;99.90;;;;;;5100265;28;20669;-77
2021/05/15 06:07:02;;;;;;;5.00;3.00;;;11.40;99.90;;;;;;5109824;28;20506;-78
2021/05/15 06:09:28;;;;;;;3.50;3.20;;;11.40;99.90;;;;;;5109436;28;20185;-77
2021/05/15 06:11:53;;;;;;;3.60;3.30;;;11.50;99.90;;;;;;5110182;28;20204;-77
2021/05/15 06:14:19;;;;;;;3.40;3.20;;;11.50;99.90;;;;;;5110053;28;20223;-77
2021/05/15 06:16:45;;;;;;;4.17;3.13;;;11.50;99.90;;;;;;5109020;28;20234;-78
2021/05/15 06:19:10;;;;;;;4.33;3.43;;;11.60;99.90;;;;;;5109685;28;20205;-78
2021/05/15 06:21:36;;;;;;;3.60;3.30;;;11.70;99.90;;;;;;5109374;28;20242;-77
2021/05/15 06:24:01;;;;;;;4.17;3.80;;;11.70;99.90;;;;;;5109526;28;20181;-77
2021/05/15 06:26:27;;;;;;;4.53;3.60;;;11.70;99.90;;;;;;5109594;28;20263;-77
2021/05/15 06:28:53;;;;;;;4.03;3.73;;;11.80;99.90;;;;;;5109566;28;20188;-77
2021/05/15 06:31:18;;;;;;;4.80;3.87;;;11.80;99.90;;;;;;5108909;28;20208;-77
2021/05/15 06:33:44;;;;;;;4.20;3.80;;;11.90;99.90;;;;;;5109239;28;20180;-75
2021/05/15 06:36:09;;;;;;;4.43;4.03;;;12.10;99.90;;;;;;5109094;28;20196;-77
2021/05/15 06:38:35;;;;;;;5.80;4.10;;;12.20;99.90;;;;;;5109185;28;20172;-77
2021/05/15 06:41:00;;;;;;;4.10;3.70;;;12.30;99.90;;;;;;5099293;28;20196;-75
2021/05/15 06:43:26;;;;;;;4.03;3.73;;;12.30;99.90;;;;;;5109470;28;20184;-76
2021/05/15 06:45:51;;;;;;;3.70;3.40;;;12.10;99.90;;;;;;5109023;28;20192;-77
2021/05/15 06:48:17;;;;;;;4.23;3.83;;;12.10;99.90;;;;;;5108833;28;20719;-78
2021/05/15 06:50:43;;;;;;;5.30;3.40;;;12.10;99.90;;;;;;5108300;28;20208;-77
2021/05/15 06:53:08;;;;;;;3.67;3.40;;;12.10;99.90;;;;;;5098814;28;20180;-78
2021/05/15 06:55:34;;;;;;;3.90;3.60;;;12.00;99.90;;;;;;5108507;28;20196;-79
2021/05/15 06:58:05;;;;;;;5.50;3.70;;;12.00;99.90;;;;;;5098634;28;20204;-77
2021/05/15 07:00:32;;;;;;;5.43;4.77;;;12.00;99.90;;;;;;5108655;28;20718;-75
2021/05/15 07:02:57;;;;;;;3.87;3.57;;;12.00;99.90;;;;;;5108362;28;20420;-76
2021/05/15 07:05:23;;;;;;;3.90;3.60;;;12.20;99.90;;;;;;5107870;28;20938;-77
2021/05/15 07:07:49;;;;;;;4.87;4.10;;;12.10;99.90;;;;;;5108509;28;20180;-76
2021/05/15 07:10:15;;;;;;;4.53;3.60;;;12.20;99.90;;;;;;5108152;28;20270;-75
2021/05/15 07:12:40;;;;;;;4.30;3.90;;;12.10;99.90;;;;;;5108071;28;20184;-77
2021/05/15 07:15:08;;;;;;;4.13;3.73;;;12.00;99.90;;;;;;5108032;28;20208;-76
2021/05/15 07:17:34;;;;;;;4.40;4.00;;;12.10;99.90;;;;;;5108286;28;20180;-76
2021/05/15 07:20:00;;;;;;;3.93;3.53;;;12.30;99.90;;;;;;5108041;28;20414;-75
2021/05/15 07:22:27;;;;;;;5.03;4.50;;;12.30;99.90;;;;;;5108106;28;20891;-77
2021/05/15 07:24:54;;;;;;;4.57;4.23;;;12.30;99.90;;;;;;5094034;28;20414;-76
2021/05/15 07:27:21;;;;;;;3.87;3.53;;;12.30;99.90;;;;;;5107722;28;20897;-77
2021/05/15 07:29:48;;;;;;;4.53;3.60;;;12.30;99.90;;;;;;5107882;28;20430;-76
2021/05/15 07:32:14;;;;;;;4.43;4.10;;;12.30;99.90;;;;;;5107764;28;20460;-77
2021/05/15 07:34:39;;;;;;;4.20;3.80;;;12.40;99.90;;;;;;5107867;28;20410;-77
2021/05/15 07:37:05;;;;;;;7.00;3.53;;;12.50;99.90;;;;;;5092170;28;20249;-77
2021/05/15 07:39:31;;;;;;;4.43;4.03;;;12.60;99.90;;;;;;5103138;28;20660;-78
2021/05/15 07:41:56;;;;;;;5.20;3.50;;;12.70;99.90;;;;;;5097852;28;20203;-77
2021/05/15 07:44:23;;;;;;;4.23;3.93;;;12.60;99.90;;;;;;5107953;28;20195;-78
2021/05/15 07:46:50;;;;;;;3.93;3.53;;;12.70;99.90;;;;;;5097694;28;20192;-77
2021/05/15 07:49:17;;;;;;;4.10;3.80;;;12.70;99.90;;;;;;5107344;28;20471;-78
2021/05/15 07:51:43;;;;;;;4.97;4.10;;;12.70;99.90;;;;;;5107430;28;20535;-77
2021/05/15 07:54:09;;;;;;;5.33;4.30;;;12.70;99.90;;;;;;5107434;28;20917;-77
2021/05/15 07:56:34;;;;;;;4.70;4.23;;;12.70;99.90;;;;;;5107428;28;20514;-76
2021/05/15 07:59:00;;;;;;;4.77;4.37;;;12.70;99.90;;;;;;5107395;28;20180;-77
2021/05/15 08:01:25;;;;;;;4.40;4.00;;;12.80;99.90;;;;;;5107439;28;20552;-75
2021/05/15 08:03:51;;;;;;;4.90;4.13;;;12.90;99.90;;;;;;5107289;28;20229;-76
2021/05/15 08:06:16;;;;;;;4.03;3.57;;;13.00;99.90;;;;;;5107480;28;20221;-76
2021/05/15 08:08:42;;;;;;;4.33;3.93;;;13.00;99.90;;;;;;5107223;28;20184;-74
2021/05/15 08:11:07;;;;;;;4.10;3.80;;;13.10;99.90;;;;;;5106894;28;20204;-77
2021/05/15 08:13:33;;;;;;;4.10;3.80;;;12.90;99.90;;;;;;5107075;28;20196;-77
2021/05/15 08:15:59;;;;;;;4.10;3.73;;;12.90;99.90;;;;;;5107340;28;20212;-76
2021/05/15 08:18:24;;;;;;;7.10;4.77;;;13.00;99.90;;;;;;5107885;28;20313;-77
2021/05/15 08:20:50;;;;;;;4.17;3.77;;;12.90;99.90;;;;;;5096956;28;20487;-76
2021/05/15 08:23:16;;;;;;;4.10;3.80;;;12.90;99.90;;;;;;5107691;28;20254;-76
2021/05/15 08:25:42;;;;;;;4.00;3.70;;;12.80;99.90;;;;;;5107627;28;20198;-77
2021/05/15 08:28:13;;;;;;;3.97;3.67;;;12.90;99.90;;;;;;5097629;28;20215;-76
2021/05/15 08:30:40;;;;;;;4.00;3.70;;;13.00;99.90;;;;;;5107335;28;20846;-76
2021/05/15 08:33:07;;;;;;;6.83;4.10;;;13.00;99.90;;;;;;5106970;28;20921;-76
2021/05/15 08:35:33;;;;;;;4.50;4.10;;;13.10;99.90;;;;;;5106909;28;20457;-76
2021/05/15 08:37:59;;;;;;;4.33;4.03;;;13.10;99.90;;;;;;5107360;28;20420;-77
2021/05/15 08:40:25;;;;;;;4.70;4.17;;;13.30;99.90;;;;;;5100464;28;20912;-77
2021/05/15 08:42:53;;;;;;;4.50;3.80;;;13.50;99.90;;;;;;5107324;28;20608;-76
2021/05/15 08:45:20;;;;;;;3.77;3.57;;;13.50;99.90;;;;;;5106664;28;20938;-75
2021/05/15 08:47:46;;;;;;;4.53;4.13;;;13.60;99.90;;;;;;5097087;28;20434;-76
2021/05/15 08:50:17;;;;;;;4.73;4.33;;;13.70;99.90;;;;;;5106438;28;20467;-76
2021/05/15 08:52:46;;;;;;;4.37;4.07;;;13.80;99.90;;;;;;5106481;28;20557;-76
2021/05/15 08:55:14;;;;;;;4.17;3.87;;;13.90;99.90;;;;;;5106391;28;20458;-76
2021/05/15 08:57:41;;;;;;;4.43;4.13;;;14.10;99.90;;;;;;5107032;28;20458;-75
2021/05/15 09:00:25;;;;;;;6.97;4.17;;;14.10;99.90;;;;;;5105643;28;20520;-76
2021/05/15 09:02:55;;;;;;;4.30;4.00;;;14.00;99.90;;;;;;5096265;28;20510;-74
2021/05/15 09:05:22;;;;;;;3.87;3.60;;;13.90;99.90;;;;;;5093699;28;20538;-75
2021/05/15 09:07:53;;;;;;;4.10;3.80;;;14.00;99.90;;;;;;5101615;28;20944;-74
2021/05/15 09:10:20;;;;;;;4.93;3.73;;;14.10;99.90;;;;;;5106325;28;20792;-76
2021/05/15 09:12:47;;;;;;;3.90;3.60;;;14.10;99.90;;;;;;5106604;28;20460;-76
2021/05/15 09:15:14;;;;;;;3.60;3.30;;;13.80;99.90;;;;;;5106527;28;20472;-76
2021/05/15 09:17:43;;;;;;;3.20;3.00;;;13.80;99.90;;;;;;5106602;28;20994;-76
2021/05/15 09:20:10;;;;;;;4.70;2.70;;;13.70;99.90;;;;;;5106126;28;20787;-76
2021/05/15 09:22:35;;;;;;;3.23;2.93;;;13.80;99.90;;;;;;5106605;28;20956;-75
2021/05/15 09:25:06;;;;;;;2.87;2.60;;;14.00;99.90;;;;;;5106421;28;20456;-78
2021/05/15 09:27:34;;;;;;;2.93;2.73;;;14.10;99.90;;;;;;5096284;28;20189;-78
2021/05/15 09:30:00;;;;;;;2.80;2.60;;;14.00;99.90;;;;;;5106236;28;20503;-76
2021/05/15 09:32:32;;;;;;;2.70;2.50;;;13.80;99.90;;;;;;5105868;28;20478;-77
2021/05/15 09:34:58;;;;;;;3.00;2.70;;;13.70;99.90;;;;;;5107132;28;20433;-77
2021/05/15 09:37:42;;;;;;;2.90;2.70;;;13.80;99.90;;;;;;5102324;28;20414;-77
2021/05/15 09:40:27;;;;;;;2.63;2.43;;;13.70;99.90;;;;;;5096089;28;20435;-78
2021/05/15 09:42:55;;;;;;;2.87;2.67;;;13.70;99.90;;;;;;5106363;28;20442;-76
2021/05/15 09:45:31;;;;;;;3.20;3.00;;;13.50;99.90;;;;;;5106276;28;20418;-78
2021/05/15 09:48:02;;;;;;;3.77;3.57;;;13.20;99.90;;;;;;5106660;28;20808;-78
2021/05/15 09:50:33;;;;;;;4.03;3.73;;;13.10;99.90;;;;;;5098921;28;20437;-76
2021/05/15 09:53:10;;;;;;;3.83;3.57;;;13.10;99.90;;;;;;5110042;28;20418;-78
2021/05/15 09:55:37;;;;;;;4.40;4.00;;;13.00;99.90;;;;;;5103495;28;20497;-76
2021/05/15 09:58:04;;;;;;;5.63;4.27;;;13.00;99.90;;;;;;5109812;28;20470;-78
2021/05/15 10:00:41;;;;;;;4.90;4.50;;;12.80;99.90;;;;;;5109505;28;20508;-75
2021/05/15 10:03:19;;;;;;;2.50;2.37;;;12.40;99.90;;;;;;5109933;28;20418;-76
2021/05/15 10:05:45;;;;;;;3.30;3.10;;;11.90;99.90;;;;;;5087625;28;20858;-76
2021/05/15 10:08:11;;;;;;;2.90;2.70;;;11.60;99.90;;;;;;5101828;28;20467;-76
2021/05/15 10:10:36;;;;;;;2.30;2.20;;;11.40;99.90;;;;;;5110177;28;20442;-77
2021/05/15 10:13:02;;;;;;;2.53;2.43;;;11.20;99.90;;;;;;5104610;28;20287;-77
2021/05/15 10:15:28;;;;;;;2.90;2.70;;;11.20;99.90;;;;;;5110684;28;20222;-77
2021/05/15 10:17:54;;;;;;;3.43;2.47;;;11.20;99.90;;;;;;5115683;28;20179;-75
2021/05/15 10:20:20;;;;;;;2.60;2.40;;;11.30;99.90;;;;;;5110694;28;20317;-75
2021/05/15 10:22:46;;;;;;;4.13;2.50;;;11.30;99.90;;;;;;5109934;28;20460;-76
2021/05/15 10:25:13;;;;;;;1.80;1.60;;;11.40;99.90;;;;;;5109658;28;20281;-76
2021/05/15 10:27:39;;;;;;;2.03;1.93;;;11.20;99.90;;;;;;5109200;28;20180;-75
2021/05/15 10:30:22;;;;;;;2.57;2.37;;;11.20;99.90;;;;;;5103372;28;20972;-77
2021/05/15 10:32:57;;;;;;;1.73;1.63;;;11.30;99.90;;;;;;5109412;28;20422;-77
2021/05/15 10:35:40;;;;;;;3.00;1.63;;;11.50;99.90;;;;;;5109142;28;20465;-78
2021/05/15 10:38:09;;;;;;;1.60;1.50;;;11.60;99.90;;;;;;5106724;28;20837;-78
2021/05/15 10:41:08;;;;;;;2.47;1.70;;;11.50;99.90;;;;;;5098452;28;20532;-77
2021/05/15 10:43:35;;;;;;;2.93;1.80;;;11.50;99.90;;;;;;5108801;28;20414;-77
2021/05/15 10:46:23;;;;;;;5.00;1.60;;;11.50;99.90;;;;;;5109347;28;20419;-77
2021/05/15 10:49:05;;;;;;;2.60;2.20;;;11.30;99.90;;;;;;5094457;28;20457;-77
2021/05/15 10:51:44;;;;;;;1.90;1.80;;;11.10;99.90;;;;;;5103940;28;20452;-78
2021/05/15 10:54:11;;;;;;;2.30;1.90;;;11.00;99.90;;;;;;5109197;28;20422;-78
2021/05/15 10:56:37;;;;;;;1.90;1.70;;;11.00;99.90;;;;;;5108853;28;20461;-77
2021/05/15 10:59:05;;;;;;;3.60;2.20;;;11.00;99.90;;;;;;5098837;28;20426;-77
2021/05/15 11:01:46;;;;;;;2.67;2.30;;;11.20;99.90;;;;;;5108221;28;20438;-77
2021/05/15 11:04:20;;;;;;;4.83;2.40;;;11.30;99.90;;;;;;5107216;28;20926;-76
2021/05/15 11:06:55;;;;;;;2.07;1.87;;;11.40;99.90;;;;;;5100354;28;20418;-77
2021/05/15 11:09:22;;;;;;;2.17;2.00;;;11.60;99.90;;;;;;5108931;28;20417;-78
2021/05/15 11:11:49;;;;;;;1.77;1.67;;;11.80;99.90;;;;;;5108577;28;20442;-77
2021/05/15 11:14:25;;;;;;;4.17;2.40;;;12.00;99.90;;;;;;5108880;28;20491;-77
2021/05/15 11:17:12;;;;;;;2.20;1.67;;;12.20;99.90;;;;;;5108370;28;20506;-77
2021/05/15 11:19:39;;;;;;;1.60;1.50;;;12.50;99.90;;;;;;5108210;28;20398;-77
2021/05/15 11:22:05;;;;;;;3.43;1.73;;;12.60;99.90;;;;;;5108517;28;20865;-77
2021/05/15 11:24:34;;;;;;;1.27;1.17;;;12.60;99.90;;;;;;5108661;28;20444;-77
2021/05/15 11:27:12;;;;;;;1.40;1.30;;;12.80;99.90;;;;;;5108246;28;20925;-77
2021/05/15 11:29:38;;;;;;;1.40;1.27;;;13.00;99.90;;;;;;5102091;28;20420;-77
2021/05/15 11:32:08;;;;;;;1.60;1.30;;;13.20;99.90;;;;;;5108133;28;20814;-76
2021/05/15 11:34:34;;;;;;;1.23;1.13;;;13.50;99.90;;;;;;5108097;28;20180;-78
2021/05/15 11:37:00;;;;;;;3.37;1.10;;;13.60;99.90;;;;;;5108020;28;20572;-76
2021/05/15 11:39:26;;;;;;;1.20;1.10;;;13.50;99.90;;;;;;5107456;28;20496;-76
2021/05/15 11:42:06;;;;;;;1.00;0.90;;;13.60;99.90;;;;;;5108299;28;20461;-77
2021/05/15 11:44:32;;;;;;;2.43;1.13;;;13.80;99.90;;;;;;5101911;28;20172;-76
2021/05/15 11:46:57;;;;;;;1.33;0.90;;;13.80;99.90;;;;;;5107885;28;20436;-77
2021/05/15 11:49:24;;;;;;;0.90;0.90;;;13.70;99.90;;;;;;5107769;28;20207;-74
2021/05/15 11:52:01;;;;;;;1.70;1.37;;;13.60;99.90;;;;;;5107529;28;20196;-77
2021/05/15 11:54:27;;;;;;;0.93;0.93;;;13.70;99.90;;;;;;5100202;28;20505;-77
2021/05/15 11:56:53;;;;;;;1.13;1.03;;;14.10;99.90;;;;;;5107509;28;20907;-76
2021/05/15 11:59:20;;;;;;;0.93;0.93;;;14.30;99.90;;;;;;5107752;28;20191;-77
2021/05/15 12:01:46;;;;;;;1.33;1.10;;;14.40;99.90;;;;;;5107959;28;20444;-77
2021/05/15 12:04:32;;;;;;;1.50;1.40;;;14.60;99.90;;;;;;5107677;28;20837;-77
2021/05/15 12:07:03;;;;;;;1.33;1.10;;;15.10;99.90;;;;;;5107720;28;20418;-77
2021/05/15 12:09:30;;;;;;;1.70;1.50;;;15.50;99.90;;;;;;5099974;28;20421;-77
2021/05/15 12:12:04;;;;;;;1.23;1.13;;;15.40;99.90;;;;;;5107894;28;20469;-77
2021/05/15 12:14:30;;;;;;;1.60;1.30;;;15.40;99.90;;;;;;5099581;28;20458;-77
2021/05/15 12:17:04;;;;;;;2.67;1.60;;;15.70;99.90;;;;;;5107175;28;20450;-76
2021/05/15 12:19:29;;;;;;;1.90;1.70;;;15.60;99.90;;;;;;5100318;28;20427;-78
2021/05/15 12:21:57;;;;;;;1.60;1.50;;;15.60;99.90;;;;;;5098178;28;20430;-77
2021/05/15 12:24:23;;;;;;;1.93;1.83;;;15.30;99.90;;;;;;5108271;28;20176;-77
2021/05/15 12:26:48;;;;;;;1.73;1.63;;;15.30;99.90;;;;;;5108433;28;20410;-75
2021/05/15 12:29:14;;;;;;;1.63;1.53;;;15.30;99.90;;;;;;5108007;28;20446;-76
2021/05/15 12:31:43;;;;;;;3.37;2.20;;;15.30;99.90;;;;;;5107692;28;20676;-75
2021/05/15 12:34:09;;;;;;;1.90;1.80;;;14.90;99.90;;;;;;5098501;28;20180;-76
2021/05/15 12:36:37;;;;;;;2.00;1.90;;;14.70;99.90;;;;;;5107529;28;20874;-75
2021/05/15 12:39:10;;;;;;;2.33;1.50;;;14.80;99.90;;;;;;5107132;28;20234;-77
2021/05/15 12:41:38;;;;;;;2.13;2.00;;;14.80;99.90;;;;;;5106455;28;20426;-76
2021/05/15 12:44:03;;;;;;;2.47;2.27;;;14.70;99.90;;;;;;5107333;28;20417;-77
2021/05/15 12:46:35;;;;;;;2.63;2.20;;;14.40;99.90;;;;;;5103824;28;20422;-76
2021/05/15 12:49:03;;;;;;;2.73;2.37;;;14.10;99.90;;;;;;5106873;28;20184;-76